Terminal Aerodrome Forecast
Issued by NWS Twin Cities, MN

Home | Current Version | Previous Version | Text Only | Print | Product List | Glossary On
Versions: 1 2 3 4 5 6 7 8 9 10 11 12 13 14
707
FTUS43 KMPX 241143
TAFEAU
TAF
KEAU 241143Z 2412/2512 17005KT P6SM VCSH SCT030 OVC080
     FM241700 23004KT P6SM SCT120
     FM250000 12003KT P6SM BKN150=

USA.gov is the U.S. government's official web portal to all federal, state and local government web resources and services.